Time;durP1;ratioP1;P1;durP2;ratioP2;P2;SDS_P1;SDS_P2;PMS_P1;PMS_P2;Temp;Humidity;BMP_temperature;BMP_pressure;BME280_temperature;BME280_humidity;BME280_pressure;Samples;Min_cycle;Max_cycle;Signal;HPM_P1;HPM_P2
2022/11/17 00:00:37;;;;;;;5.23;3.73;;;7.90;99.90;;;;;;4228535;28;20210;-66
2022/11/17 00:02:37;;;;;;;4.67;3.30;;;7.90;99.90;;;;;;4227811;28;20173;-66
2022/11/17 00:04:38;;;;;;;4.97;3.60;;;7.90;99.90;;;;;;4229550;28;20558;-66
2022/11/17 00:06:38;;;;;;;5.70;3.13;;;7.90;99.90;;;;;;4229217;28;20217;-66
2022/11/17 00:08:39;;;;;;;5.40;3.13;;;7.90;99.90;;;;;;4229305;28;20269;-66
2022/11/17 00:10:40;;;;;;;5.40;2.97;;;7.90;99.90;;;;;;4228610;28;20211;-66
2022/11/17 00:15:00;;;;;;;3.80;2.90;;;8.00;99.90;;;;;;4228186;28;20641;-66
2022/11/17 00:17:04;;;;;;;4.77;2.80;;;8.10;99.90;;;;;;4228945;28;20189;-66
2022/11/17 00:21:27;;;;;;;4.53;2.50;;;8.20;99.90;;;;;;4227307;28;20212;-66
2022/11/17 00:23:47;;;;;;;3.30;2.30;;;8.20;99.90;;;;;;4221606;28;20196;-66
2022/11/17 00:25:47;;;;;;;4.47;2.40;;;8.10;99.90;;;;;;4212000;28;20258;-65
2022/11/17 00:27:48;;;;;;;3.03;2.30;;;8.20;99.90;;;;;;4212329;28;20186;-66
2022/11/17 00:29:49;;;;;;;3.90;2.63;;;8.20;99.90;;;;;;4212358;28;20194;-66
2022/11/17 00:34:19;;;;;;;3.03;2.00;;;8.10;99.90;;;;;;4212406;28;20247;-66
2022/11/17 00:36:24;;;;;;;5.90;2.80;;;8.20;99.90;;;;;;4210975;28;20194;-65
2022/11/17 00:38:25;;;;;;;3.50;1.97;;;8.20;99.90;;;;;;4212334;28;20537;-65
2022/11/17 00:40:26;;;;;;;4.03;2.93;;;8.20;99.90;;;;;;4211106;28;20220;-65
2022/11/17 00:42:26;;;;;;;6.40;2.87;;;8.10;99.90;;;;;;4212199;28;20204;-65
2022/11/17 00:44:28;;;;;;;4.10;2.37;;;8.10;99.90;;;;;;4214668;28;20746;-66
2022/11/17 00:46:29;;;;;;;5.47;2.80;;;8.20;99.90;;;;;;4214233;28;20595;-66
2022/11/17 00:48:29;;;;;;;4.00;2.50;;;8.20;99.90;;;;;;4215565;28;20655;-66
2022/11/17 00:50:30;;;;;;;4.87;2.93;;;8.20;99.90;;;;;;4214966;28;20297;-66
2022/11/17 00:52:31;;;;;;;6.67;3.40;;;8.20;99.90;;;;;;4230755;28;20189;-66
2022/11/17 00:54:31;;;;;;;4.70;3.13;;;8.00;99.90;;;;;;4215290;28;20681;-66
2022/11/17 00:56:32;;;;;;;5.10;3.33;;;8.00;99.90;;;;;;4213624;28;20601;-64
2022/11/17 00:58:34;;;;;;;5.00;3.90;;;7.90;99.90;;;;;;4214081;28;20921;-66
2022/11/17 01:00:35;;;;;;;9.37;5.20;;;7.80;99.90;;;;;;4229826;28;20242;-66
2022/11/17 01:02:36;;;;;;;5.80;4.43;;;7.80;99.90;;;;;;4214962;28;20672;-66
2022/11/17 01:04:36;;;;;;;6.60;4.80;;;7.80;99.90;;;;;;4215332;28;20259;-66
2022/11/17 01:06:44;;;;;;;7.77;5.40;;;7.70;99.90;;;;;;4215190;28;20190;-65
2022/11/17 01:08:45;;;;;;;6.90;5.27;;;7.70;99.90;;;;;;4214003;28;20202;-66
2022/11/17 01:10:46;;;;;;;7.93;5.70;;;7.60;99.90;;;;;;4214410;28;20455;-66
2022/11/17 01:12:46;;;;;;;10.50;6.37;;;7.70;99.90;;;;;;4215065;28;20292;-65
2022/11/17 01:14:48;;;;;;;8.30;6.47;;;7.60;99.90;;;;;;4214936;28;20189;-66
2022/11/17 01:16:48;;;;;;;10.07;6.90;;;7.60;99.90;;;;;;4215200;28;20194;-65
2022/11/17 01:18:51;;;;;;;11.57;7.43;;;7.50;99.90;;;;;;4214830;28;20186;-65
2022/11/17 01:20:51;;;;;;;10.77;7.33;;;7.50;99.90;;;;;;4214490;28;20207;-65
2022/11/17 01:22:55;;;;;;;12.10;6.90;;;7.50;99.90;;;;;;4214861;28;20263;-66
2022/11/17 01:24:56;;;;;;;10.93;7.20;;;7.40;99.90;;;;;;4214666;28;20201;-66
2022/11/17 01:26:56;;;;;;;13.27;7.63;;;7.30;99.90;;;;;;4214943;28;20473;-66
2022/11/17 01:28:59;;;;;;;11.30;7.13;;;7.30;99.90;;;;;;4215875;28;20193;-65
2022/11/17 01:31:22;;;;;;;16.90;9.67;;;7.30;99.90;;;;;;4215898;28;20211;-66
2022/11/17 01:33:23;;;;;;;14.27;9.13;;;7.10;99.90;;;;;;4226989;28;20522;-65
2022/11/17 01:35:23;;;;;;;15.40;9.83;;;7.00;99.90;;;;;;4230247;28;20432;-66
2022/11/17 01:37:25;;;;;;;18.10;9.80;;;7.00;99.90;;;;;;4231829;28;20641;-65
2022/11/17 01:39:28;;;;;;;18.23;10.30;;;6.90;99.90;;;;;;4231633;28;20184;-66
2022/11/17 01:41:29;;;;;;;17.27;10.70;;;6.80;99.90;;;;;;4231019;28;20440;-66
2022/11/17 01:43:47;;;;;;;18.33;10.40;;;6.70;99.90;;;;;;4231626;28;20504;-66
2022/11/17 01:45:48;;;;;;;14.03;9.10;;;6.70;99.90;;;;;;4231595;28;20693;-66
2022/11/17 01:47:54;;;;;;;15.33;9.93;;;6.60;99.90;;;;;;4231335;28;20428;-66
2022/11/17 01:50:12;;;;;;;17.30;11.70;;;6.70;99.90;;;;;;4231747;28;20175;-66
2022/11/17 01:52:13;;;;;;;19.10;11.30;;;6.70;99.90;;;;;;4231459;28;20465;-65
2022/11/17 01:54:20;;;;;;;18.13;10.70;;;6.60;99.90;;;;;;4230998;28;20436;-65
2022/11/17 01:56:28;;;;;;;18.03;11.70;;;6.60;99.90;;;;;;4213369;28;20488;-65
2022/11/17 01:58:37;;;;;;;20.20;11.00;;;6.50;99.90;;;;;;4231312;28;20455;-65
2022/11/17 02:00:37;;;;;;;15.77;10.47;;;6.50;99.90;;;;;;4229592;28;20225;-66
2022/11/17 02:02:40;;;;;;;20.80;11.80;;;6.60;99.90;;;;;;4231663;28;20419;-65
2022/11/17 02:04:54;;;;;;;20.53;11.63;;;6.50;99.90;;;;;;4229977;28;20178;-66
2022/11/17 02:07:05;;;;;;;18.90;10.70;;;6.50;99.90;;;;;;4231457;28;20408;-65
2022/11/17 02:09:07;;;;;;;17.73;10.53;;;6.60;99.90;;;;;;4231137;28;20411;-65
2022/11/17 02:11:17;;;;;;;18.70;10.77;;;6.70;99.90;;;;;;4230365;28;21025;-65
2022/11/17 02:13:21;;;;;;;16.47;10.23;;;6.70;99.90;;;;;;4229801;28;20428;-66
2022/11/17 02:15:23;;;;;;;15.97;9.63;;;6.80;99.90;;;;;;4230938;28;20431;-66
2022/11/17 02:17:45;;;;;;;14.93;9.90;;;6.80;99.90;;;;;;4229787;28;20813;-65
2022/11/17 02:20:02;;;;;;;12.53;8.70;;;6.90;99.90;;;;;;4230677;28;20551;-66
2022/11/17 02:22:33;;;;;;;13.77;9.67;;;6.90;99.90;;;;;;4228911;28;20663;-66
2022/11/17 02:25:11;;;;;;;14.97;8.90;;;7.00;99.90;;;;;;4230617;28;20450;-66
2022/11/17 02:28:08;;;;;;;11.13;7.43;;;7.00;99.90;;;;;;4230682;28;20953;-66
2022/11/17 02:30:18;;;;;;;9.87;6.90;;;7.20;99.90;;;;;;4228442;28;20522;-65
2022/11/17 02:32:52;;;;;;;17.70;7.80;;;7.20;99.90;;;;;;4195844;28;20280;-66
2022/11/17 02:35:44;;;;;;;12.17;7.97;;;7.30;99.90;;;;;;4213779;28;20226;-66
2022/11/17 02:38:18;;;;;;;9.60;6.47;;;7.30;99.90;;;;;;4212546;28;20179;-65
2022/11/17 02:40:33;;;;;;;10.63;7.10;;;7.30;99.90;;;;;;4211813;28;20686;-66
2022/11/17 02:45:03;;;;;;;11.07;7.17;;;7.40;99.90;;;;;;4212619;28;20192;-66
2022/11/17 02:47:10;;;;;;;11.23;6.83;;;7.50;99.90;;;;;;4213573;28;20431;-66
2022/11/17 02:49:32;;;;;;;10.70;6.63;;;7.60;99.90;;;;;;4212239;28;20615;-66
2022/11/17 02:51:35;;;;;;;9.90;7.20;;;7.50;99.90;;;;;;4211380;28;20440;-66
2022/11/17 02:53:37;;;;;;;14.47;7.00;;;7.50;99.90;;;;;;4212168;28;20179;-66
2022/11/17 02:55:38;;;;;;;13.67;8.10;;;7.50;99.90;;;;;;4212176;28;20277;-65
2022/11/17 02:57:40;;;;;;;14.27;8.57;;;7.50;99.90;;;;;;4213340;28;20707;-66
2022/11/17 02:59:46;;;;;;;12.00;8.20;;;7.50;99.90;;;;;;4213172;28;20218;-66
2022/11/17 03:02:17;;;;;;;14.33;8.87;;;7.40;99.90;;;;;;4212544;28;20855;-66
2022/11/17 03:04:38;;;;;;;16.37;9.57;;;7.40;99.90;;;;;;4213137;28;20175;-66
2022/11/17 03:07:00;;;;;;;17.27;10.30;;;7.30;99.90;;;;;;4212537;28;20198;-65
2022/11/17 03:09:17;;;;;;;23.30;10.67;;;7.20;99.90;;;;;;4213070;28;20455;-66
2022/11/17 03:11:28;;;;;;;18.73;10.07;;;7.10;99.90;;;;;;4212545;28;20207;-66
2022/11/17 03:13:49;;;;;;;18.77;9.90;;;7.10;99.90;;;;;;4211861;28;20171;-66
2022/11/17 03:15:55;;;;;;;17.20;10.40;;;7.10;99.90;;;;;;4212938;28;20256;-66
2022/11/17 03:18:16;;;;;;;18.60;11.33;;;7.10;99.90;;;;;;4211686;28;20170;-66
2022/11/17 03:20:42;;;;;;;19.30;11.27;;;7.00;99.90;;;;;;4210815;28;20476;-66
2022/11/17 03:22:54;;;;;;;22.30;12.60;;;7.00;99.90;;;;;;4212672;28;20172;-66
2022/11/17 03:25:00;;;;;;;22.67;12.10;;;7.00;99.90;;;;;;4217635;28;20474;-67
2022/11/17 03:27:18;;;;;;;22.20;12.33;;;6.90;99.90;;;;;;4228335;28;20799;-66
2022/11/17 03:29:23;;;;;;;21.80;12.33;;;6.80;99.90;;;;;;4228401;28;20476;-66
2022/11/17 03:31:27;;;;;;;22.63;12.40;;;6.80;99.90;;;;;;4212281;28;20475;-66
2022/11/17 03:33:29;;;;;;;20.90;12.20;;;6.90;99.90;;;;;;4230483;28;20419;-66
2022/11/17 03:35:34;;;;;;;20.00;12.03;;;6.90;99.90;;;;;;4229423;28;20425;-66
2022/11/17 03:37:41;;;;;;;22.60;12.37;;;6.80;99.90;;;;;;4227898;28;20428;-66
2022/11/17 03:39:49;;;;;;;23.57;12.93;;;6.80;99.90;;;;;;4227992;28;20463;-65
2022/11/17 03:41:59;;;;;;;21.40;12.70;;;6.90;99.90;;;;;;4228824;28;20558;-65
2022/11/17 03:44:03;;;;;;;21.90;12.77;;;7.00;99.90;;;;;;4245160;27;20407;-66
2022/11/17 03:46:12;;;;;;;22.27;12.73;;;6.90;99.90;;;;;;4244970;27;20840;-72
2022/11/17 03:48:28;;;;;;;22.70;12.73;;;6.90;99.90;;;;;;4244826;27;20786;-66
2022/11/17 03:50:36;;;;;;;24.93;13.87;;;6.70;99.90;;;;;;4244509;27;20200;-65
2022/11/17 03:52:37;;;;;;;23.73;12.67;;;6.70;99.90;;;;;;4245281;27;20407;-66
2022/11/17 03:54:39;;;;;;;19.77;12.37;;;6.80;99.90;;;;;;4229104;28;20424;-65
2022/11/17 03:56:54;;;;;;;21.37;13.30;;;6.70;99.90;;;;;;4244807;27;20458;-66
2022/11/17 03:59:26;;;;;;;19.90;12.23;;;6.70;99.90;;;;;;4228888;28;20436;-66
2022/11/17 04:01:29;;;;;;;23.77;12.77;;;6.70;99.90;;;;;;4244144;27;20463;-65
2022/11/17 04:03:33;;;;;;;18.00;11.57;;;6.60;99.90;;;;;;4227531;28;20190;-66
2022/11/17 04:05:34;;;;;;;18.13;11.20;;;6.60;99.90;;;;;;4229098;28;20526;-66
2022/11/17 04:07:42;;;;;;;18.37;11.27;;;6.60;99.90;;;;;;4229153;28;20427;-67
2022/11/17 04:09:42;;;;;;;18.83;11.37;;;6.70;99.90;;;;;;4229037;28;20158;-64
2022/11/17 04:16:21;;;;;;;16.17;10.50;;;6.70;99.90;;;;;;4229101;28;20511;-65
2022/11/17 04:18:22;;;;;;;16.77;10.80;;;6.70;99.90;;;;;;4228721;28;20412;-65
2022/11/17 04:20:23;;;;;;;17.73;10.63;;;6.70;99.90;;;;;;4228110;28;20219;-65
2022/11/17 04:22:24;;;;;;;16.63;11.10;;;6.60;99.90;;;;;;4228758;28;20511;-66
2022/11/17 04:24:24;;;;;;;18.20;11.57;;;6.70;99.90;;;;;;4228650;28;20645;-66
2022/11/17 04:28:58;;;;;;;19.07;11.73;;;6.70;99.90;;;;;;4194116;28;20205;-66
2022/11/17 04:30:59;;;;;;;23.10;13.27;;;6.80;99.90;;;;;;4228074;28;20684;-66
2022/11/17 04:32:59;;;;;;;15.60;10.63;;;6.90;99.90;;;;;;4228501;28;20166;-65
2022/11/17 04:35:00;;;;;;;15.03;10.40;;;7.00;99.90;;;;;;4220384;28;20657;-66
2022/11/17 04:37:00;;;;;;;17.70;10.17;;;7.00;99.90;;;;;;4211745;28;20535;-67
2022/11/17 04:39:02;;;;;;;15.93;10.70;;;7.10;99.90;;;;;;4211852;28;20179;-65
2022/11/17 04:43:26;;;;;;;16.93;10.43;;;7.20;99.90;;;;;;4212133;28;21119;-66
2022/11/17 04:45:26;;;;;;;16.87;10.00;;;7.20;99.90;;;;;;4212176;28;20222;-66
2022/11/17 04:47:27;;;;;;;13.33;8.83;;;7.30;99.90;;;;;;4212047;28;20675;-66
2022/11/17 04:49:28;;;;;;;16.77;10.17;;;7.30;99.90;;;;;;4212135;28;20581;-66
2022/11/17 04:51:30;;;;;;;16.43;10.00;;;7.30;99.90;;;;;;4211449;28;20306;-66
2022/11/17 04:53:30;;;;;;;15.77;10.17;;;7.40;99.90;;;;;;4210964;28;20179;-66
2022/11/17 04:55:31;;;;;;;8.23;6.27;;;7.30;99.90;;;;;;4210904;28;20183;-66
2022/11/17 04:57:32;;;;;;;6.37;4.57;;;7.20;99.90;;;;;;4212216;28;20205;-65
2022/11/17 04:59:33;;;;;;;14.77;8.93;;;7.30;99.90;;;;;;4212164;28;20221;-66
2022/11/17 05:01:34;;;;;;;13.17;7.63;;;7.20;99.90;;;;;;4221563;28;20727;-65
2022/11/17 05:03:35;;;;;;;12.10;6.87;;;7.20;99.90;;;;;;4227718;28;20637;-66
2022/11/17 05:05:35;;;;;;;7.90;5.57;;;7.20;99.90;;;;;;4227721;28;20179;-65
2022/11/17 05:07:36;;;;;;;6.30;4.60;;;7.30;99.90;;;;;;4229050;28;20194;-66
2022/11/17 05:09:37;;;;;;;6.33;5.10;;;7.50;99.90;;;;;;4229194;28;20549;-66
2022/11/17 05:13:57;;;;;;;3.53;2.20;;;7.90;99.90;;;;;;4228912;28;20208;-66
2022/11/17 05:18:17;;;;;;;2.83;1.67;;;8.20;99.90;;;;;;4227554;28;20177;-66
2022/11/17 05:20:18;;;;;;;1.83;1.27;;;8.20;99.90;;;;;;4227647;28;20208;-65
2022/11/17 05:24:41;;;;;;;2.57;0.87;;;8.40;99.90;;;;;;4228177;28;20201;-66
2022/11/17 05:26:44;;;;;;;2.60;1.20;;;8.30;99.90;;;;;;4228313;28;20213;-66
2022/11/17 05:28:45;;;;;;;5.40;2.10;;;8.30;99.90;;;;;;4226603;28;20170;-66
2022/11/17 05:30:46;;;;;;;4.47;1.07;;;8.30;99.90;;;;;;4228966;28;20209;-66
2022/11/17 05:32:47;;;;;;;2.67;1.20;;;8.30;99.90;;;;;;4241660;28;20184;-66
2022/11/17 05:34:48;;;;;;;3.87;1.43;;;8.30;99.90;;;;;;4237596;28;20216;-66
2022/11/17 05:36:48;;;;;;;1.80;1.40;;;8.30;99.90;;;;;;4231619;28;20180;-66
2022/11/17 05:38:50;;;;;;;4.10;2.97;;;8.30;99.90;;;;;;4230550;28;20183;-66
2022/11/17 05:40:50;;;;;;;2.70;0.80;;;8.30;99.90;;;;;;4231045;27;20223;-65
2022/11/17 05:42:51;;;;;;;2.50;0.83;;;8.20;99.90;;;;;;4239720;27;20217;-66
2022/11/17 05:44:52;;;;;;;4.23;1.77;;;8.20;99.90;;;;;;4248158;27;20222;-65
2022/11/17 05:46:52;;;;;;;7.20;1.80;;;8.20;99.90;;;;;;4248318;27;20757;-66
2022/11/17 05:48:53;;;;;;;2.13;1.73;;;8.10;99.90;;;;;;4248235;27;20597;-66
2022/11/17 05:50:55;;;;;;;2.97;1.00;;;8.10;99.90;;;;;;4247403;27;20200;-66
2022/11/17 05:52:56;;;;;;;11.37;10.57;;;8.20;99.90;;;;;;4246923;27;20177;-67
2022/11/17 05:54:57;;;;;;;6.50;1.70;;;8.20;99.90;;;;;;4246620;27;20182;-66
2022/11/17 05:57:24;;;;;;;3.17;1.27;;;8.20;99.90;;;;;;4247923;27;20279;-65
2022/11/17 05:59:40;;;;;;;3.50;1.50;;;8.10;99.90;;;;;;4247973;27;20184;-66
2022/11/17 06:01:52;;;;;;;1.77;1.00;;;8.10;99.90;;;;;;4247243;27;20193;-66
2022/11/17 06:03:57;;;;;;;2.30;0.90;;;8.10;99.90;;;;;;4246914;27;20173;-65
2022/11/17 06:05:58;;;;;;;2.77;0.80;;;8.20;99.90;;;;;;4247803;27;20177;-66
2022/11/17 06:07:58;;;;;;;4.70;1.67;;;8.20;99.90;;;;;;4247789;27;20178;-66
2022/11/17 06:09:59;;;;;;;3.93;1.20;;;8.20;99.90;;;;;;4247763;27;20210;-65
2022/11/17 06:12:00;;;;;;;1.87;1.00;;;8.20;99.90;;;;;;4247123;27;20318;-66
2022/11/17 06:14:00;;;;;;;5.23;1.23;;;8.20;99.90;;;;;;4247996;27;20253;-66
2022/11/17 06:16:06;;;;;;;1.90;0.83;;;8.20;99.90;;;;;;4247921;27;20645;-66
2022/11/17 06:18:13;;;;;;;2.63;1.13;;;8.30;99.90;;;;;;4246742;27;20215;-66
2022/11/17 06:20:42;;;;;;;4.97;1.50;;;8.40;99.90;;;;;;4247053;27;20702;-65
2022/11/17 06:22:43;;;;;;;2.53;2.17;;;8.40;99.90;;;;;;4245182;27;20182;-67
2022/11/17 06:24:45;;;;;;;1.67;1.00;;;8.50;99.90;;;;;;4246316;27;20189;-67
2022/11/17 06:26:46;;;;;;;3.93;1.73;;;8.50;99.90;;;;;;4247815;27;20645;-67
2022/11/17 06:28:48;;;;;;;7.93;1.30;;;8.50;99.90;;;;;;4244957;27;20678;-66
2022/11/17 06:30:49;;;;;;;4.43;1.67;;;8.40;99.90;;;;;;4215000;28;20207;-67
2022/11/17 06:32:52;;;;;;;5.50;1.50;;;8.50;99.90;;;;;;4213982;28;20563;-66
2022/11/17 06:34:53;;;;;;;7.83;1.57;;;8.50;99.90;;;;;;4213452;28;20273;-66
2022/11/17 06:36:54;;;;;;;5.47;2.00;;;8.60;99.90;;;;;;4228960;28;20530;-67
2022/11/17 06:38:55;;;;;;;6.87;2.77;;;8.60;99.90;;;;;;4213183;28;20721;-67
2022/11/17 06:40:56;;;;;;;8.87;1.83;;;8.50;99.90;;;;;;4211458;28;20225;-66
2022/11/17 06:43:02;;;;;;;6.40;1.67;;;8.60;99.90;;;;;;4213322;28;20297;-67
2022/11/17 06:45:04;;;;;;;4.43;2.73;;;8.60;99.90;;;;;;4213267;28;20185;-67
2022/11/17 06:47:05;;;;;;;4.33;1.30;;;8.60;99.90;;;;;;4213097;28;20277;-66
2022/11/17 06:49:06;;;;;;;12.23;1.30;;;8.70;99.90;;;;;;4213039;28;20182;-67
2022/11/17 06:51:07;;;;;;;5.73;1.20;;;8.60;99.90;;;;;;4211426;28;20238;-67
2022/11/17 06:53:11;;;;;;;2.90;1.20;;;8.50;99.90;;;;;;4213184;28;20174;-67
2022/11/17 06:55:11;;;;;;;6.97;1.20;;;8.40;99.90;;;;;;4212961;28;20887;-67
2022/11/17 06:57:12;;;;;;;5.77;1.83;;;8.40;99.90;;;;;;4213172;28;20179;-67
2022/11/17 06:59:14;;;;;;;10.90;1.60;;;8.40;99.90;;;;;;4213245;28;20186;-67
2022/11/17 07:01:15;;;;;;;5.07;1.33;;;8.30;99.90;;;;;;4212270;28;20217;-67
2022/11/17 07:03:16;;;;;;;10.47;2.17;;;8.30;99.90;;;;;;4212848;28;20663;-67
2022/11/17 07:05:17;;;;;;;3.77;1.20;;;8.20;99.90;;;;;;4212929;28;20230;-66
2022/11/17 07:07:17;;;;;;;3.43;1.03;;;8.30;99.90;;;;;;4211693;28;20179;-67
2022/11/17 07:09:18;;;;;;;6.63;1.80;;;8.20;99.90;;;;;;4212894;28;20178;-67
2022/11/17 07:11:19;;;;;;;3.53;1.97;;;8.10;99.90;;;;;;4212452;28;20238;-67
2022/11/17 07:13:23;;;;;;;15.87;5.83;;;8.10;99.90;;;;;;4213002;28;20179;-67
2022/11/17 07:15:25;;;;;;;9.07;3.77;;;8.10;99.90;;;;;;4212961;28;20183;-67
2022/11/17 07:17:27;;;;;;;2.73;0.90;;;8.10;99.90;;;;;;4212854;28;20200;-67
2022/11/17 07:19:28;;;;;;;1.80;0.80;;;8.20;99.90;;;;;;4213259;28;20186;-67
2022/11/17 07:21:29;;;;;;;6.60;3.70;;;8.30;99.90;;;;;;4212636;28;20194;-66
2022/11/17 07:23:31;;;;;;;6.83;1.70;;;8.20;99.90;;;;;;4212570;28;20707;-67
2022/11/17 07:25:32;;;;;;;4.10;2.37;;;8.10;99.90;;;;;;4212739;28;20159;-67
2022/11/17 07:27:33;;;;;;;2.47;1.50;;;8.10;99.90;;;;;;4212639;28;20181;-66
2022/11/17 07:29:34;;;;;;;1.70;0.80;;;8.00;99.90;;;;;;4226792;28;20238;-66
2022/11/17 07:31:35;;;;;;;3.03;2.83;;;8.00;99.90;;;;;;4228973;28;20197;-67
2022/11/17 07:33:36;;;;;;;1.93;1.30;;;8.00;99.90;;;;;;4236735;28;20182;-66
2022/11/17 07:35:37;;;;;;;5.83;4.27;;;8.10;99.90;;;;;;4242579;28;20189;-66
2022/11/17 07:37:37;;;;;;;1.17;1.00;;;7.90;99.90;;;;;;4228616;28;20200;-66
2022/11/17 07:39:38;;;;;;;1.30;1.00;;;7.90;99.90;;;;;;4229362;28;20181;-66
2022/11/17 07:41:39;;;;;;;2.00;1.73;;;7.80;99.90;;;;;;4229060;28;20233;-66
2022/11/17 07:43:40;;;;;;;0.97;0.63;;;7.80;99.90;;;;;;4229427;28;20182;-66
2022/11/17 07:45:40;;;;;;;1.53;0.83;;;7.80;99.90;;;;;;4229536;28;20631;-67
2022/11/17 07:47:41;;;;;;;2.00;1.07;;;7.80;99.90;;;;;;4229335;28;20592;-69
2022/11/17 07:49:41;;;;;;;1.90;1.00;;;7.70;99.90;;;;;;4229215;28;20184;-66
2022/11/17 07:51:42;;;;;;;2.23;1.37;;;7.70;99.90;;;;;;4228553;28;20208;-66
2022/11/17 07:53:43;;;;;;;3.17;0.73;;;7.60;99.90;;;;;;4228998;28;20257;-67
2022/11/17 07:55:43;;;;;;;1.23;0.77;;;7.60;99.90;;;;;;4229166;28;20605;-66
2022/11/17 07:57:44;;;;;;;0.50;0.50;;;7.60;99.90;;;;;;4229222;28;20173;-67
2022/11/17 07:59:45;;;;;;;6.50;2.00;;;7.60;99.90;;;;;;4229004;28;20178;-67
2022/11/17 08:01:46;;;;;;;0.80;0.80;;;7.60;99.90;;;;;;4228875;28;20198;-66
2022/11/17 08:03:46;;;;;;;1.33;0.63;;;7.60;99.90;;;;;;4229531;28;20679;-67
2022/11/17 08:05:47;;;;;;;0.70;0.70;;;7.60;99.90;;;;;;4229266;28;20555;-67
2022/11/17 08:07:58;;;;;;;0.80;0.77;;;7.60;99.90;;;;;;4229626;28;20206;-66
2022/11/17 08:09:59;;;;;;;5.17;4.97;;;7.50;99.90;;;;;;4229211;28;20184;-67
2022/11/17 08:12:00;;;;;;;3.97;0.80;;;7.50;99.90;;;;;;4227493;28;20235;-66
2022/11/17 08:14:01;;;;;;;3.33;3.23;;;7.40;99.90;;;;;;4229468;28;20174;-67
2022/11/17 08:16:02;;;;;;;1.73;1.63;;;7.40;99.90;;;;;;4228072;28;20213;-66
2022/11/17 08:18:03;;;;;;;0.57;0.57;;;7.40;99.90;;;;;;4229053;28;20235;-67
2022/11/17 08:20:04;;;;;;;4.37;4.17;;;7.40;99.90;;;;;;4228692;28;20254;-67
2022/11/17 08:22:05;;;;;;;1.97;1.00;;;7.40;99.90;;;;;;4228553;28;20183;-67
2022/11/17 08:24:06;;;;;;;2.07;1.00;;;7.30;99.90;;;;;;4228784;28;20670;-67
2022/11/17 08:26:09;;;;;;;0.90;0.80;;;7.30;99.90;;;;;;4229035;28;20268;-66
2022/11/17 08:28:10;;;;;;;1.17;0.60;;;7.20;99.90;;;;;;4229031;28;20176;-67
2022/11/17 08:30:11;;;;;;;0.87;0.83;;;7.20;99.90;;;;;;4228554;28;20210;-66
2022/11/17 08:32:12;;;;;;;0.50;0.50;;;7.10;99.90;;;;;;4228765;28;20176;-69
2022/11/17 08:34:12;;;;;;;2.93;2.83;;;7.20;99.90;;;;;;4229245;28;20423;-66
2022/11/17 08:36:13;;;;;;;2.60;2.33;;;7.00;99.90;;;;;;4229652;28;20217;-68
2022/11/17 08:38:14;;;;;;;0.60;0.60;;;7.00;99.90;;;;;;4228837;28;20557;-69
2022/11/17 08:40:16;;;;;;;0.80;0.80;;;7.00;99.90;;;;;;4225258;28;20289;-68
2022/11/17 08:42:17;;;;;;;1.33;1.10;;;7.00;99.90;;;;;;4228488;28;20186;-69
2022/11/17 08:44:18;;;;;;;0.80;0.53;;;7.00;99.90;;;;;;4229019;28;20200;-67
2022/11/17 08:46:19;;;;;;;1.33;1.23;;;7.00;99.90;;;;;;4228903;28;20188;-68
2022/11/17 08:48:19;;;;;;;1.00;0.60;;;7.00;99.90;;;;;;4228736;28;20179;-68
2022/11/17 08:50:21;;;;;;;1.37;0.80;;;6.90;99.90;;;;;;4226847;28;20208;-68
2022/11/17 08:52:21;;;;;;;5.13;4.70;;;6.90;99.90;;;;;;4227412;28;20195;-68
2022/11/17 08:54:22;;;;;;;2.57;2.37;;;6.90;99.90;;;;;;4228633;28;20197;-68
2022/11/17 08:56:22;;;;;;;1.90;0.77;;;6.90;99.90;;;;;;4228655;28;20201;-69
2022/11/17 08:58:23;;;;;;;0.70;0.50;;;7.00;99.90;;;;;;4228559;28;20231;-67
2022/11/17 09:00:24;;;;;;;1.80;1.70;;;7.00;99.90;;;;;;4227693;28;20246;-69
2022/11/17 09:02:25;;;;;;;0.47;0.47;;;7.00;99.90;;;;;;4228577;28;20184;-68
2022/11/17 09:04:25;;;;;;;1.23;0.60;;;6.90;99.90;;;;;;4245047;27;20230;-68
2022/11/17 09:06:26;;;;;;;0.97;0.90;;;7.00;99.90;;;;;;4231851;28;20179;-69
2022/11/17 09:08:27;;;;;;;0.97;0.70;;;7.00;99.90;;;;;;4247415;27;20178;-68
2022/11/17 09:10:27;;;;;;;1.70;0.57;;;6.90;99.90;;;;;;4231334;27;20195;-67
2022/11/17 09:12:28;;;;;;;0.83;0.60;;;6.90;99.90;;;;;;4231837;28;20249;-68
2022/11/17 09:14:30;;;;;;;1.73;1.30;;;6.90;99.90;;;;;;4231747;28;20628;-69
2022/11/17 09:16:31;;;;;;;2.43;1.30;;;7.00;99.90;;;;;;4231666;28;20683;-69
2022/11/17 09:18:32;;;;;;;2.40;0.80;;;7.00;99.90;;;;;;4231521;28;20425;-68
2022/11/17 09:20:33;;;;;;;2.17;0.80;;;7.10;99.90;;;;;;4230972;28;20343;-69
2022/11/17 09:22:34;;;;;;;1.63;0.87;;;7.20;99.90;;;;;;4231781;28;20179;-69
2022/11/17 09:24:34;;;;;;;2.67;1.10;;;7.10;99.90;;;;;;4231436;28;20223;-68
2022/11/17 09:26:39;;;;;;;2.30;0.70;;;7.20;99.90;;;;;;4247208;27;20267;-69
2022/11/17 09:28:41;;;;;;;3.13;1.30;;;7.30;99.90;;;;;;4231469;28;20720;-67
2022/11/17 09:30:42;;;;;;;4.87;1.10;;;7.30;99.90;;;;;;4230631;28;20319;-68
2022/11/17 09:32:46;;;;;;;1.30;0.80;;;7.40;99.90;;;;;;4231947;27;20300;-69
2022/11/17 09:34:47;;;;;;;4.23;1.70;;;7.50;99.90;;;;;;4235059;28;20185;-69
2022/11/17 09:36:47;;;;;;;2.20;0.70;;;7.80;99.90;;;;;;4243979;28;20193;-69
2022/11/17 09:38:49;;;;;;;5.37;0.90;;;7.90;99.90;;;;;;4237778;28;20182;-68
2022/11/17 09:40:51;;;;;;;2.30;0.97;;;7.90;99.90;;;;;;4231596;28;20240;-69
2022/11/17 09:42:52;;;;;;;2.23;0.90;;;7.90;99.90;;;;;;4231417;28;20277;-68
2022/11/17 09:44:59;;;;;;;6.93;1.20;;;8.00;99.90;;;;;;4230382;28;20183;-69
2022/11/17 09:47:28;;;;;;;3.13;1.10;;;8.20;99.90;;;;;;4230442;28;20281;-68
2022/11/17 09:49:40;;;;;;;4.63;1.97;;;8.50;99.90;;;;;;4231784;28;20215;-69
2022/11/17 09:51:43;;;;;;;5.77;1.93;;;8.30;99.90;;;;;;4229499;28;20205;-69
2022/11/17 09:54:12;;;;;;;4.97;1.63;;;8.20;99.90;;;;;;4231126;28;20260;-69
2022/11/17 09:56:13;;;;;;;12.63;8.20;;;8.20;99.90;;;;;;4231419;28;20270;-68
2022/11/17 09:58:42;;;;;;;7.00;2.43;;;8.00;99.90;;;;;;4229865;28;20181;-69
2022/11/17 10:00:50;;;;;;;8.70;2.27;;;8.00;99.90;;;;;;4231624;28;20297;-69
2022/11/17 10:02:53;;;;;;;9.70;2.07;;;8.00;99.90;;;;;;4229720;28;20267;-69
2022/11/17 10:04:54;;;;;;;3.83;1.37;;;8.10;99.90;;;;;;4231205;28;20178;-70
2022/11/17 10:06:56;;;;;;;7.73;1.10;;;8.10;99.90;;;;;;4230907;28;20655;-68
2022/11/17 10:09:28;;;;;;;4.97;2.00;;;8.10;99.90;;;;;;4230760;28;20652;-69
2022/11/17 10:11:33;;;;;;;7.23;2.37;;;8.00;99.90;;;;;;4228892;28;20202;-69
2022/11/17 10:13:36;;;;;;;9.20;1.60;;;8.10;99.90;;;;;;4229481;28;20190;-69
2022/11/17 10:15:48;;;;;;;4.30;1.67;;;8.10;99.90;;;;;;4230569;28;20185;-70
2022/11/17 10:17:50;;;;;;;9.73;4.60;;;8.30;99.90;;;;;;4230842;28;20698;-70
2022/11/17 10:19:51;;;;;;;8.10;1.53;;;8.40;99.90;;;;;;4212423;28;20277;-67
2022/11/17 10:22:11;;;;;;;3.90;1.13;;;8.40;99.90;;;;;;4230009;28;20193;-69
2022/11/17 10:24:34;;;;;;;6.27;1.60;;;8.50;99.90;;;;;;4229179;28;20193;-69
2022/11/17 10:26:48;;;;;;;6.43;1.40;;;8.50;99.90;;;;;;4229312;28;20219;-69
2022/11/17 10:29:06;;;;;;;3.27;1.43;;;8.50;99.90;;;;;;4230587;28;20207;-69
2022/11/17 10:31:09;;;;;;;3.77;1.70;;;8.60;99.90;;;;;;4228396;28;20213;-69
2022/11/17 10:33:12;;;;;;;6.67;1.70;;;8.70;99.90;;;;;;4230411;28;20184;-69
2022/11/17 10:35:18;;;;;;;4.67;1.93;;;8.70;99.90;;;;;;4229127;28;20186;-69
2022/11/17 10:37:19;;;;;;;8.17;1.87;;;8.80;99.90;;;;;;4230390;28;20182;-70
2022/11/17 10:39:36;;;;;;;6.80;1.80;;;8.90;99.90;;;;;;4226689;28;20185;-68
2022/11/17 10:41:49;;;;;;;10.03;1.83;;;9.10;99.40;;;;;;4212748;28;20234;-70
2022/11/17 10:44:06;;;;;;;5.97;1.80;;;9.10;99.60;;;;;;4228995;28;20193;-69
2022/11/17 10:46:15;;;;;;;8.73;2.20;;;9.10;99.70;;;;;;4213507;28;20202;-68
2022/11/17 10:48:37;;;;;;;7.50;1.40;;;9.30;99.90;;;;;;4211930;28;20163;-69
2022/11/17 10:50:57;;;;;;;7.50;1.50;;;9.30;98.50;;;;;;4211442;28;20244;-70
2022/11/17 10:53:31;;;;;;;10.13;2.03;;;9.40;98.30;;;;;;4213150;28;20283;-70
2022/11/17 10:55:32;;;;;;;7.03;2.00;;;9.50;99.00;;;;;;4211912;28;20692;-69
2022/11/17 10:57:33;;;;;;;4.77;1.43;;;9.60;97.30;;;;;;4212001;28;20171;-70
2022/11/17 10:59:46;;;;;;;6.87;2.23;;;9.50;97.50;;;;;;4212933;28;20198;-69
2022/11/17 11:01:50;;;;;;;10.23;2.57;;;9.60;96.30;;;;;;4211382;28;20708;-69
2022/11/17 11:03:50;;;;;;;4.10;2.37;;;9.50;96.60;;;;;;4213260;28;20214;-68
2022/11/17 11:06:06;;;;;;;8.83;3.20;;;9.50;96.10;;;;;;4213218;28;20185;-69
2022/11/17 11:08:20;;;;;;;8.87;1.80;;;9.40;97.10;;;;;;4213156;28;20159;-69
2022/11/17 11:10:33;;;;;;;10.83;9.50;;;9.60;97.10;;;;;;4211130;28;20804;-69
2022/11/17 11:13:08;;;;;;;12.73;1.83;;;9.60;94.10;;;;;;4213075;28;20175;-68
2022/11/17 11:15:22;;;;;;;8.47;1.70;;;9.50;95.50;;;;;;4211690;28;20545;-69
2022/11/17 11:17:27;;;;;;;12.63;3.13;;;9.60;96.00;;;;;;4211586;28;20167;-69
2022/11/17 11:19:28;;;;;;;6.90;2.80;;;9.60;96.80;;;;;;4211235;28;20568;-69
2022/11/17 11:22:03;;;;;;;4.20;2.17;;;9.80;94.40;;;;;;4224643;28;20230;-68